Time;durP1;ratioP1;P1;durP2;ratioP2;P2;SDS_P1;SDS_P2;PMS_P1;PMS_P2;Temp;Humidity;BMP_temperature;BMP_pressure;BME280_temperature;BME280_humidity;BME280_pressure;Samples;Min_cycle;Max_cycle;Signal;HPM_P1;HPM_P2
2022/09/01 00:02:14;;;;;;;3.30;2.67;;;;;;;;;;5061340;28;20040;-47
2022/09/01 00:04:42;;;;;;;4.80;2.72;;;;;;;;;;5049657;28;20048;-48
2022/09/01 00:07:08;;;;;;;3.60;2.50;;;;;;;;;;5055910;28;20037;-46
2022/09/01 00:09:35;;;;;;;6.13;2.70;;;;;;;;;;5062111;28;20044;-47
2022/09/01 00:12:02;;;;;;;4.43;3.00;;;;;;;;;;5055032;28;20017;-47
2022/09/01 00:14:32;;;;;;;4.32;2.80;;;;;;;;;;5048935;28;20037;-46
2022/09/01 00:17:03;;;;;;;4.22;2.60;;;;;;;;;;5058060;28;20037;-49
2022/09/01 00:19:32;;;;;;;3.03;2.65;;;;;;;;;;5065032;28;20552;-47
2022/09/01 00:21:58;;;;;;;4.60;2.58;;;;;;;;;;5059033;28;20029;-49
2022/09/01 00:24:25;;;;;;;6.43;2.58;;;;;;;;;;5059785;28;20473;-48
2022/09/01 00:26:51;;;;;;;2.40;2.25;;;;;;;;;;5063137;28;20025;-47
2022/09/01 00:29:17;;;;;;;2.80;2.60;;;;;;;;;;5063106;28;20031;-46
2022/09/01 00:31:42;;;;;;;5.35;2.90;;;;;;;;;;5052804;28;20487;-49
2022/09/01 00:34:09;;;;;;;4.32;2.97;;;;;;;;;;5058821;28;20032;-48
2022/09/01 00:36:34;;;;;;;7.43;3.08;;;;;;;;;;5061854;28;20063;-49
2022/09/01 00:39:01;;;;;;;5.97;2.80;;;;;;;;;;5058146;28;20449;-48
2022/09/01 00:41:30;;;;;;;7.43;2.55;;;;;;;;;;5058128;28;20398;-48
2022/09/01 00:44:04;;;;;;;5.20;2.78;;;;;;;;;;5063212;28;20024;-51
2022/09/01 00:46:34;;;;;;;3.28;2.90;;;;;;;;;;5052588;28;20495;-48
2022/09/01 00:49:31;;;;;;;5.72;3.47;;;;;;;;;;5063932;28;20086;-48
2022/09/01 00:52:05;;;;;;;7.25;3.08;;;;;;;;;;5051075;28;20111;-49
2022/09/01 00:54:34;;;;;;;2.83;2.63;;;;;;;;;;5039531;28;20032;-49
2022/09/01 00:57:03;;;;;;;3.20;2.60;;;;;;;;;;5056496;28;20116;-49
2022/09/01 00:59:29;;;;;;;3.30;3.00;;;;;;;;;;5060294;28;20171;-48
2022/09/01 01:01:56;;;;;;;7.72;2.97;;;;;;;;;;5056665;28;20098;-48
2022/09/01 01:04:23;;;;;;;3.88;2.80;;;;;;;;;;5057658;28;20370;-48
2022/09/01 01:06:57;;;;;;;5.22;3.30;;;;;;;;;;5054731;28;20675;-46
2022/09/01 01:09:24;;;;;;;7.90;2.20;;;;;;;;;;5059574;28;20033;-46
2022/09/01 01:11:51;;;;;;;3.40;3.08;;;;;;;;;;5049874;28;20108;-49
2022/09/01 01:14:18;;;;;;;4.63;2.70;;;;;;;;;;5061873;28;20028;-49
2022/09/01 01:16:46;;;;;;;6.65;2.88;;;;;;;;;;5061019;28;20112;-51
2022/09/01 01:25:17;;;;;;;4.22;2.70;;;;;;;;;;5056010;28;20025;-48
2022/09/01 01:27:44;;;;;;;10.45;2.80;;;;;;;;;;5050966;28;20044;-48
2022/09/01 01:30:11;;;;;;;7.03;2.88;;;;;;;;;;5062600;28;20673;-47
2022/09/01 01:32:41;;;;;;;4.10;2.55;;;;;;;;;;5055843;28;20033;-49
2022/09/01 01:35:12;;;;;;;3.33;2.80;;;;;;;;;;5052164;28;20032;-51
2022/09/01 01:37:38;;;;;;;5.68;2.88;;;;;;;;;;5056648;28;20032;-48
2022/09/01 01:40:04;;;;;;;3.10;2.70;;;;;;;;;;5056497;28;20029;-48
2022/09/01 01:42:32;;;;;;;6.65;2.97;;;;;;;;;;5053073;28;20040;-51
2022/09/01 01:44:58;;;;;;;4.85;2.47;;;;;;;;;;5055999;28;20021;-47
2022/09/01 01:47:24;;;;;;;3.53;2.53;;;;;;;;;;5062753;28;20036;-48
2022/09/01 01:49:51;;;;;;;3.92;2.70;;;;;;;;;;5061023;28;20033;-48
2022/09/01 01:52:19;;;;;;;3.67;2.92;;;;;;;;;;5062635;28;20501;-49
2022/09/01 01:54:46;;;;;;;4.47;2.80;;;;;;;;;;5057083;28;20039;-46
2022/09/01 01:57:16;;;;;;;3.58;2.88;;;;;;;;;;5048543;28;20044;-46
2022/09/01 01:59:41;;;;;;;2.40;2.20;;;;;;;;;;5054700;28;20037;-51
2022/09/01 02:02:08;;;;;;;10.18;2.53;;;;;;;;;;5054437;28;20513;-49
2022/09/01 02:04:34;;;;;;;3.78;2.60;;;;;;;;;;5055636;28;20029;-47
2022/09/01 02:07:00;;;;;;;3.53;2.88;;;;;;;;;;5057063;28;20127;-48
2022/09/01 02:09:26;;;;;;;2.88;2.50;;;;;;;;;;5059966;28;20111;-47
2022/09/01 02:11:56;;;;;;;3.92;2.58;;;;;;;;;;5057791;28;20029;-48
2022/09/01 02:14:22;;;;;;;4.95;2.55;;;;;;;;;;5052668;28;20099;-46
2022/09/01 02:16:48;;;;;;;8.10;2.60;;;;;;;;;;5056712;28;20519;-46
2022/09/01 02:19:18;;;;;;;8.05;2.78;;;;;;;;;;5053197;28;20044;-47
2022/09/01 02:21:47;;;;;;;5.00;2.80;;;;;;;;;;5054716;28;20033;-47
2022/09/01 02:24:14;;;;;;;3.85;2.60;;;;;;;;;;5055013;28;20029;-47
2022/09/01 02:26:46;;;;;;;9.02;2.78;;;;;;;;;;5062202;28;20104;-49
2022/09/01 02:29:17;;;;;;;;;;;;;;;;;;5052362;28;20434;-46
2022/09/01 02:31:45;;;;;;;3.53;2.80;;;;;;;;;;5052357;28;19982;-46
2022/09/01 02:34:12;;;;;;;5.15;2.65;;;;;;;;;;5057212;28;20637;-47
2022/09/01 02:36:57;;;;;;;3.85;2.40;;;;;;;;;;5054388;28;20064;-47
2022/09/01 02:39:27;;;;;;;4.38;3.10;;;;;;;;;;5055236;28;20033;-51
2022/09/01 02:41:53;;;;;;;2.95;2.72;;;;;;;;;;5053198;28;20477;-47
2022/09/01 02:44:20;;;;;;;4.55;2.55;;;;;;;;;;5056546;28;20034;-48
2022/09/01 02:46:47;;;;;;;8.73;3.05;;;;;;;;;;5057914;28;20376;-46
2022/09/01 02:49:18;;;;;;;4.07;3.08;;;;;;;;;;5057166;28;20123;-48
2022/09/01 02:51:47;;;;;;;6.45;2.83;;;;;;;;;;5055678;28;20028;-49
2022/09/01 02:54:15;;;;;;;6.57;3.20;;;;;;;;;;5053603;28;20036;-49
2022/09/01 02:56:46;;;;;;;7.57;3.05;;;;;;;;;;5055130;28;20044;-50
2022/09/01 02:59:20;;;;;;;4.88;2.90;;;;;;;;;;5062658;28;20099;-46
2022/09/01 03:01:47;;;;;;;3.20;2.90;;;;;;;;;;5043903;28;20048;-48
2022/09/01 03:04:13;;;;;;;4.03;2.53;;;;;;;;;;5052305;28;20115;-49
2022/09/01 03:06:39;;;;;;;4.75;2.70;;;;;;;;;;5054297;28;20040;-48
2022/09/01 03:09:08;;;;;;;3.38;3.00;;;;;;;;;;5053982;28;20038;-47
2022/09/01 03:11:36;;;;;;;2.78;2.58;;;;;;;;;;5058931;28;20032;-47
2022/09/01 03:14:03;;;;;;;6.05;2.85;;;;;;;;;;5055420;28;20074;-47
2022/09/01 03:16:31;;;;;;;4.05;3.13;;;;;;;;;;5062270;28;20041;-46
2022/09/01 03:18:58;;;;;;;2.72;2.50;;;;;;;;;;5059085;28;20086;-47
2022/09/01 03:21:24;;;;;;;5.25;2.63;;;;;;;;;;5055387;28;20036;-49
2022/09/01 03:23:51;;;;;;;5.93;2.80;;;;;;;;;;5050291;28;20024;-47
2022/09/01 03:26:21;;;;;;;3.05;2.67;;;;;;;;;;5050143;28;20381;-46
2022/09/01 03:28:48;;;;;;;3.40;2.67;;;;;;;;;;5052926;28;20033;-51
2022/09/01 03:31:15;;;;;;;3.25;2.95;;;;;;;;;;5050914;28;20028;-46
2022/09/01 03:33:41;;;;;;;6.72;2.83;;;;;;;;;;5052240;28;20499;-49
2022/09/01 03:36:07;;;;;;;4.47;3.13;;;;;;;;;;5056524;28;20028;-48
2022/09/01 03:38:33;;;;;;;5.47;2.83;;;;;;;;;;5051253;28;20036;-48
2022/09/01 03:41:03;;;;;;;5.53;2.85;;;;;;;;;;5051976;28;20045;-47
2022/09/01 03:43:32;;;;;;;2.97;2.78;;;;;;;;;;5047697;28;20025;-48
2022/09/01 03:45:59;;;;;;;3.25;2.80;;;;;;;;;;5048117;28;20025;-46
2022/09/01 03:48:30;;;;;;;4.35;2.53;;;;;;;;;;5060482;28;20056;-53
2022/09/01 03:51:01;;;;;;;6.00;3.03;;;;;;;;;;5060537;28;20500;-48
2022/09/01 03:53:29;;;;;;;2.78;2.22;;;;;;;;;;5045969;28;20052;-50
2022/09/01 03:55:56;;;;;;;4.68;3.10;;;;;;;;;;5048814;28;20564;-47
2022/09/01 03:58:23;;;;;;;2.80;2.40;;;;;;;;;;5051720;28;20053;-48
2022/09/01 04:00:54;;;;;;;5.38;2.80;;;;;;;;;;5048581;28;20123;-47
2022/09/01 04:03:25;;;;;;;3.03;2.72;;;;;;;;;;5055853;28;20080;-50
2022/09/01 04:05:53;;;;;;;4.30;2.97;;;;;;;;;;5058424;28;20032;-47
2022/09/01 04:08:20;;;;;;;4.57;2.70;;;;;;;;;;5057546;28;20036;-46
2022/09/01 04:10:49;;;;;;;4.03;3.28;;;;;;;;;;5059366;28;20060;-47
2022/09/01 04:13:24;;;;;;;4.50;2.78;;;;;;;;;;5058329;28;20378;-50
2022/09/01 04:15:49;;;;;;;5.07;2.97;;;;;;;;;;5048029;28;20039;-48
2022/09/01 04:18:19;;;;;;;5.22;2.83;;;;;;;;;;5057479;28;20419;-47
2022/09/01 04:20:50;;;;;;;5.45;3.67;;;;;;;;;;5059170;28;20028;-48
2022/09/01 04:23:25;;;;;;;2.83;2.63;;;;;;;;;;5050655;28;20064;-48
2022/09/01 04:25:55;;;;;;;2.90;2.70;;;;;;;;;;5052805;28;20028;-49
2022/09/01 04:28:23;;;;;;;3.67;3.03;;;;;;;;;;5053385;28;20040;-47
2022/09/01 04:30:52;;;;;;;4.30;2.80;;;;;;;;;;5053364;28;20028;-48
2022/09/01 04:33:18;;;;;;;4.30;2.53;;;;;;;;;;5048617;28;20492;-48
2022/09/01 04:35:44;;;;;;;3.40;2.60;;;;;;;;;;5045334;28;20045;-46
2022/09/01 04:38:10;;;;;;;5.75;2.72;;;;;;;;;;5057568;28;20086;-47
2022/09/01 04:40:39;;;;;;;4.68;3.30;;;;;;;;;;5050514;28;20432;-47
2022/09/01 04:43:06;;;;;;;3.10;2.90;;;;;;;;;;5050461;28;20028;-47
2022/09/01 04:45:35;;;;;;;7.78;3.40;;;;;;;;;;5058077;28;20457;-46
2022/09/01 04:48:04;;;;;;;6.78;3.13;;;;;;;;;;5056057;28;20025;-46
2022/09/01 04:50:31;;;;;;;3.20;2.72;;;;;;;;;;5055701;28;20512;-48
2022/09/01 04:53:01;;;;;;;5.40;2.90;;;;;;;;;;5055608;28;20041;-46
2022/09/01 04:55:28;;;;;;;2.85;2.65;;;;;;;;;;5056117;28;20443;-49
2022/09/01 04:57:56;;;;;;;4.95;2.88;;;;;;;;;;5056009;28;20027;-46
2022/09/01 05:00:24;;;;;;;4.68;3.00;;;;;;;;;;5052967;28;20059;-46
2022/09/01 05:02:53;;;;;;;4.47;3.65;;;;;;;;;;5056515;28;20024;-48
2022/09/01 05:05:21;;;;;;;4.07;2.80;;;;;;;;;;5055342;28;20068;-49
2022/09/01 05:07:51;;;;;;;4.35;3.60;;;;;;;;;;5060988;28;20089;-48
2022/09/01 05:10:21;;;;;;;5.85;3.08;;;;;;;;;;5059126;28;20037;-46
2022/09/01 05:12:52;;;;;;;3.63;2.90;;;;;;;;;;5063106;28;20117;-51
2022/09/01 05:15:18;;;;;;;9.82;3.10;;;;;;;;;;5064117;28;20427;-48
2022/09/01 05:17:44;;;;;;;3.53;2.90;;;;;;;;;;5061886;28;20055;-48
2022/09/01 05:20:10;;;;;;;4.82;3.10;;;;;;;;;;5059152;28;20486;-46
2022/09/01 05:22:39;;;;;;;4.60;3.05;;;;;;;;;;5059005;28;20052;-50
2022/09/01 05:25:12;;;;;;;5.05;2.90;;;;;;;;;;5059885;28;20478;-47
2022/09/01 05:27:51;;;;;;;3.63;3.13;;;;;;;;;;5054402;28;20032;-48
2022/09/01 05:30:17;;;;;;;2.88;2.67;;;;;;;;;;5052679;28;20048;-48
2022/09/01 05:32:46;;;;;;;3.03;2.72;;;;;;;;;;5055209;28;20033;-47
2022/09/01 05:35:11;;;;;;;5.00;2.88;;;;;;;;;;5041209;28;20017;-50
2022/09/01 05:37:37;;;;;;;9.90;3.40;;;;;;;;;;5057617;28;20035;-47
2022/09/01 05:40:05;;;;;;;3.13;2.80;;;;;;;;;;5056253;28;20052;-49
2022/09/01 05:42:31;;;;;;;5.32;3.05;;;;;;;;;;5055880;28;20043;-48
2022/09/01 05:44:57;;;;;;;4.07;2.90;;;;;;;;;;5061302;28;20028;-49
2022/09/01 05:47:24;;;;;;;9.05;3.20;;;;;;;;;;5057824;28;20374;-48
2022/09/01 05:49:52;;;;;;;9.38;3.63;;;;;;;;;;5061109;28;20028;-47
2022/09/01 05:52:22;;;;;;;7.70;3.10;;;;;;;;;;5054894;28;20055;-47
2022/09/01 05:54:47;;;;;;;7.70;3.00;;;;;;;;;;5061357;28;20098;-47
2022/09/01 05:57:14;;;;;;;7.50;3.70;;;;;;;;;;5060579;28;20087;-46
2022/09/01 05:59:40;;;;;;;6.47;3.10;;;;;;;;;;5054903;28;20017;-48
2022/09/01 06:02:07;;;;;;;5.35;3.30;;;;;;;;;;5056684;28;20039;-46
2022/09/01 06:04:34;;;;;;;4.38;2.92;;;;;;;;;;5055311;28;20041;-47
2022/09/01 06:07:00;;;;;;;7.57;3.05;;;;;;;;;;5055977;28;20512;-46
2022/09/01 06:09:26;;;;;;;5.45;2.90;;;;;;;;;;5059945;28;20033;-47
2022/09/01 06:11:54;;;;;;;2.83;2.63;;;;;;;;;;5061473;28;20032;-47
2022/09/01 06:14:19;;;;;;;8.43;3.03;;;;;;;;;;5053483;28;20086;-48
2022/09/01 06:16:46;;;;;;;3.10;2.50;;;;;;;;;;5064307;28;20076;-47
2022/09/01 06:19:11;;;;;;;2.60;2.40;;;;;;;;;;5047068;28;20100;-46
2022/09/01 06:21:38;;;;;;;4.18;3.00;;;;;;;;;;5058780;28;20135;-49
2022/09/01 06:24:05;;;;;;;3.38;2.83;;;;;;;;;;5029895;28;20108;-51
2022/09/01 06:26:34;;;;;;;5.50;2.75;;;;;;;;;;5059385;28;20131;-49
2022/09/01 06:29:03;;;;;;;6.68;2.55;;;;;;;;;;5061498;28;20028;-47
2022/09/01 06:31:33;;;;;;;5.68;2.72;;;;;;;;;;5053940;28;20028;-47
2022/09/01 06:34:02;;;;;;;4.93;2.50;;;;;;;;;;5041514;28;20026;-48
2022/09/01 06:36:31;;;;;;;2.90;2.60;;;;;;;;;;5048745;28;20154;-53
2022/09/01 06:39:00;;;;;;;3.85;3.13;;;;;;;;;;5042460;28;20689;-47
2022/09/01 06:41:27;;;;;;;6.00;2.42;;;;;;;;;;5050793;28;20034;-50
2022/09/01 06:43:53;;;;;;;4.55;2.40;;;;;;;;;;5039679;28;20131;-50
2022/09/01 06:46:20;;;;;;;4.20;2.67;;;;;;;;;;5047132;28;20035;-50
2022/09/01 06:48:47;;;;;;;3.65;2.80;;;;;;;;;;5050468;28;20123;-48
2022/09/01 06:51:21;;;;;;;12.85;3.22;;;;;;;;;;5048364;28;20458;-50
2022/09/01 06:53:55;;;;;;;2.65;2.45;;;;;;;;;;5048763;28;20024;-49
2022/09/01 06:56:23;;;;;;;3.92;3.08;;;;;;;;;;5041226;28;20053;-53
2022/09/01 06:58:52;;;;;;;5.13;3.08;;;;;;;;;;5043642;28;20104;-54
2022/09/01 07:01:19;;;;;;;2.95;2.70;;;;;;;;;;5041659;28;20033;-51
2022/09/01 07:03:49;;;;;;;3.30;2.50;;;;;;;;;;5042832;28;20029;-52
2022/09/01 07:06:17;;;;;;;6.68;2.63;;;;;;;;;;5042730;28;20427;-49
2022/09/01 07:08:48;;;;;;;2.78;2.55;;;;;;;;;;5057125;28;20028;-50
2022/09/01 07:11:26;;;;;;;13.05;2.85;;;;;;;;;;5045301;28;20068;-51
2022/09/01 07:13:54;;;;;;;6.63;2.97;;;;;;;;;;5045859;28;20029;-49
2022/09/01 07:16:22;;;;;;;4.82;2.80;;;;;;;;;;5047253;28;20431;-47
2022/09/01 07:18:57;;;;;;;2.92;2.30;;;;;;;;;;5041546;28;20121;-49
2022/09/01 07:21:23;;;;;;;4.80;2.55;;;;;;;;;;5046116;28;20490;-47
2022/09/01 07:23:50;;;;;;;3.08;2.50;;;;;;;;;;5043940;28;20020;-52
2022/09/01 07:26:18;;;;;;;9.20;2.83;;;;;;;;;;5050813;28;20033;-48
2022/09/01 07:28:49;;;;;;;4.97;2.80;;;;;;;;;;5040877;28;20056;-52
2022/09/01 07:31:42;;;;;;;3.83;2.58;;;;;;;;;;5054191;28;20036;-49
2022/09/01 07:34:11;;;;;;;4.35;2.25;;;;;;;;;;5049416;28;20040;-52
2022/09/01 07:36:39;;;;;;;3.38;2.70;;;;;;;;;;5041791;28;20029;-50
2022/09/01 07:39:05;;;;;;;2.97;2.58;;;;;;;;;;5046361;28;20021;-50
2022/09/01 07:41:33;;;;;;;5.68;2.28;;;;;;;;;;5051490;28;20074;-49
2022/09/01 07:44:01;;;;;;;4.57;2.67;;;;;;;;;;5048506;28;20029;-53
2022/09/01 07:46:30;;;;;;;5.00;2.30;;;;;;;;;;5060902;28;20385;-51
2022/09/01 07:48:56;;;;;;;2.30;2.20;;;;;;;;;;5050969;28;20024;-49
2022/09/01 07:51:25;;;;;;;2.90;2.55;;;;;;;;;;5049079;28;20033;-50
2022/09/01 07:53:51;;;;;;;7.22;2.63;;;;;;;;;;5043336;28;20033;-49
2022/09/01 07:56:20;;;;;;;5.60;2.20;;;;;;;;;;5057183;28;20046;-53
2022/09/01 07:58:48;;;;;;;4.25;2.20;;;;;;;;;;5057183;28;20507;-50
2022/09/01 08:01:17;;;;;;;3.40;2.80;;;;;;;;;;5059399;28;20064;-53
2022/09/01 08:03:48;;;;;;;4.20;2.47;;;;;;;;;;5057744;28;20106;-47
2022/09/01 08:06:19;;;;;;;4.40;2.10;;;;;;;;;;5055790;28;20025;-52
2022/09/01 08:08:47;;;;;;;4.90;2.47;;;;;;;;;;5053218;28;20118;-51
2022/09/01 08:11:23;;;;;;;2.67;2.40;;;;;;;;;;5053843;28;20140;-48
2022/09/01 08:13:51;;;;;;;5.03;2.10;;;;;;;;;;5046469;28;20107;-49
2022/09/01 08:16:17;;;;;;;5.70;2.25;;;;;;;;;;5054544;28;20036;-48
2022/09/01 08:18:43;;;;;;;2.67;2.47;;;;;;;;;;5049123;28;20031;-47
2022/09/01 08:21:10;;;;;;;5.82;2.40;;;;;;;;;;5047579;28;20120;-48
2022/09/01 08:23:37;;;;;;;2.65;2.45;;;;;;;;;;5044661;28;20552;-48
2022/09/01 08:26:08;;;;;;;6.57;2.70;;;;;;;;;;5048576;28;20036;-51
2022/09/01 08:28:34;;;;;;;2.28;2.08;;;;;;;;;;5046857;28;20033;-53
2022/09/01 08:31:05;;;;;;;2.42;2.33;;;;;;;;;;5048702;28;20147;-48
2022/09/01 08:33:33;;;;;;;2.65;2.17;;;;;;;;;;5043854;28;20115;-52
2022/09/01 08:35:59;;;;;;;5.25;2.40;;;;;;;;;;5039129;28;20029;-50
2022/09/01 08:38:26;;;;;;;10.13;2.13;;;;;;;;;;5047130;28;20509;-50
2022/09/01 08:40:55;;;;;;;8.35;2.10;;;;;;;;;;5048312;28;20025;-51
2022/09/01 08:43:25;;;;;;;3.60;2.20;;;;;;;;;;5047591;28;20029;-50
2022/09/01 08:45:55;;;;;;;5.65;2.00;;;;;;;;;;5052589;28;20067;-50
2022/09/01 08:48:39;;;;;;;3.83;2.17;;;;;;;;;;5050243;28;20060;-49
2022/09/01 08:51:29;;;;;;;3.15;2.03;;;;;;;;;;5043960;28;20032;-50
2022/09/01 08:54:15;;;;;;;2.25;1.85;;;;;;;;;;5047456;28;20116;-49
2022/09/01 08:56:42;;;;;;;3.63;2.20;;;;;;;;;;5029122;28;20041;-52
2022/09/01 08:59:09;;;;;;;3.80;2.10;;;;;;;;;;5048324;28;20028;-50
2022/09/01 09:02:00;;;;;;;1.80;1.70;;;;;;;;;;5043370;28;20047;-54
2022/09/01 09:04:39;;;;;;;4.15;1.80;;;;;;;;;;5048436;28;20163;-49
2022/09/01 09:07:14;;;;;;;1.95;1.80;;;;;;;;;;5041259;28;20039;-49
2022/09/01 09:09:48;;;;;;;2.38;1.77;;;;;;;;;;5045579;28;20126;-49
2022/09/01 09:12:28;;;;;;;1.70;1.60;;;;;;;;;;5054886;28;20098;-49
2022/09/01 09:15:18;;;;;;;2.50;2.13;;;;;;;;;;5046281;28;20025;-49
2022/09/01 09:18:05;;;;;;;1.73;1.63;;;;;;;;;;5048239;28;20036;-49
2022/09/01 09:20:30;;;;;;;4.28;1.60;;;;;;;;;;5048953;28;20572;-50
2022/09/01 09:22:56;;;;;;;3.70;1.85;;;;;;;;;;5064508;28;20112;-53
2022/09/01 09:25:23;;;;;;;3.72;1.90;;;;;;;;;;5055404;28;20473;-50
2022/09/01 09:27:50;;;;;;;1.50;1.40;;;;;;;;;;5058120;28;20452;-53
2022/09/01 09:30:25;;;;;;;2.38;1.90;;;;;;;;;;5046893;28;20076;-51
2022/09/01 09:33:03;;;;;;;3.15;1.73;;;;;;;;;;5051792;28;20033;-50
2022/09/01 09:35:43;;;;;;;1.80;1.70;;;;;;;;;;5044969;28;20025;-50
2022/09/01 09:38:22;;;;;;;6.70;2.08;;;;;;;;;;5046883;28;20017;-51
2022/09/01 09:41:07;;;;;;;1.73;1.58;;;;;;;;;;5038056;28;20079;-52
2022/09/01 09:43:37;;;;;;;1.92;1.83;;;;;;;;;;5035275;28;21889;-51
2022/09/01 09:46:27;;;;;;;3.63;1.63;;;;;;;;;;5045024;28;20380;-49
2022/09/01 09:49:15;;;;;;;7.80;1.80;;;;;;;;;;5049450;28;20037;-52
2022/09/01 09:51:46;;;;;;;3.13;1.75;;;;;;;;;;5047307;28;20029;-50
2022/09/01 09:54:25;;;;;;;5.47;1.90;;;;;;;;;;5049517;28;20032;-50
2022/09/01 09:57:12;;;;;;;4.40;1.85;;;;;;;;;;5046156;28;20524;-50
2022/09/01 09:59:47;;;;;;;2.38;1.70;;;;;;;;;;5045280;28;20045;-49
2022/09/01 10:02:33;;;;;;;1.80;1.70;;;;;;;;;;5041818;28;20021;-50
2022/09/01 10:05:23;;;;;;;3.42;2.13;;;;;;;;;;5052323;28;20029;-52
2022/09/01 10:07:49;;;;;;;5.22;1.60;;;;;;;;;;5042525;28;20056;-51
2022/09/01 10:10:37;;;;;;;4.15;1.60;;;;;;;;;;5042078;28;20088;-49
2022/09/01 10:13:06;;;;;;;5.70;2.00;;;;;;;;;;5048315;28;20040;-50
2022/09/01 10:15:32;;;;;;;4.72;1.80;;;;;;;;;;5053787;28;20041;-48
2022/09/01 10:18:13;;;;;;;1.85;1.75;;;;;;;;;;5042443;28;20422;-51
2022/09/01 10:20:45;;;;;;;4.93;2.03;;;;;;;;;;5044579;28;20025;-52
2022/09/01 10:23:10;;;;;;;3.33;1.80;;;;;;;;;;5044518;28;20033;-47
2022/09/01 10:25:37;;;;;;;1.73;1.63;;;;;;;;;;5044781;28;20539;-52
2022/09/01 10:28:04;;;;;;;2.03;1.70;;;;;;;;;;5046325;28;20043;-52
2022/09/01 10:30:30;;;;;;;2.85;1.85;;;;;;;;;;5037453;28;20033;-53
2022/09/01 10:32:59;;;;;;;2.40;1.60;;;;;;;;;;5050035;28;20041;-54
2022/09/01 10:35:31;;;;;;;1.60;1.50;;;;;;;;;;5040396;28;20024;-51
2022/09/01 10:38:06;;;;;;;2.28;1.80;;;;;;;;;;5059921;28;20378;-47
2022/09/01 10:40:32;;;;;;;5.05;1.77;;;;;;;;;;5048089;28;20064;-48
2022/09/01 10:43:24;;;;;;;2.42;1.60;;;;;;;;;;5045677;28;20079;-51
2022/09/01 10:45:50;;;;;;;2.10;1.80;;;;;;;;;;5045400;28;20493;-49
2022/09/01 10:48:28;;;;;;;1.73;1.60;;;;;;;;;;5045905;28;20120;-48
2022/09/01 10:51:12;;;;;;;2.92;1.60;;;;;;;;;;5047768;28;20244;-48
2022/09/01 10:53:41;;;;;;;1.83;1.35;;;;;;;;;;5050256;28;20124;-49
2022/09/01 10:56:52;;;;;;;4.38;1.55;;;;;;;;;;5048744;28;20095;-48
2022/09/01 10:59:24;;;;;;;2.13;1.80;;;;;;;;;;5054888;28;20040;-52
2022/09/01 11:02:03;;;;;;;7.07;1.60;;;;;;;;;;5058856;28;20159;-47
2022/09/01 11:04:28;;;;;;;3.53;1.40;;;;;;;;;;5047621;28;20086;-50
2022/09/01 11:07:05;;;;;;;5.05;1.63;;;;;;;;;;5038757;28;20630;-48
2022/09/01 11:10:00;;;;;;;2.50;1.70;;;;;;;;;;5046091;28;20025;-51
2022/09/01 11:12:43;;;;;;;1.60;1.45;;;;;;;;;;4971886;28;20054;-47
2022/09/01 11:15:14;;;;;;;1.35;1.33;;;;;;;;;;4971375;28;20584;-51
2022/09/01 11:17:49;;;;;;;4.03;1.50;;;;;;;;;;4973703;28;20122;-46
2022/09/01 11:20:20;;;;;;;6.72;1.73;;;;;;;;;;4970937;28;20042;-49
2022/09/01 11:22:58;;;;;;;;;;;;;;;;;;4970924;28;20042;-49
2022/09/01 11:25:38;;;;;;;1.52;1.42;;;;;;;;;;4970913;28;20064;-53
2022/09/01 11:28:30;;;;;;;1.63;1.52;;;;;;;;;;4965225;28;20162;-51
2022/09/01 11:31:09;;;;;;;1.23;1.23;;;;;;;;;;4962959;28;20112;-49
2022/09/01 11:34:00;;;;;;;7.63;1.98;;;;;;;;;;4975138;28;20030;-51
2022/09/01 11:36:28;;;;;;;1.80;1.70;;;;;;;;;;4982722;28;20491;-50
2022/09/01 11:39:16;;;;;;;1.73;1.48;;;;;;;;;;4983082;28;20104;-53
2022/09/01 11:41:56;;;;;;;3.00;1.60;;;;;;;;;;4984279;28;20038;-54
2022/09/01 11:44:43;;;;;;;2.60;1.60;;;;;;;;;;4984511;28;20022;-50
2022/09/01 11:47:27;;;;;;;2.63;1.50;;;;;;;;;;4985287;28;20037;-49
2022/09/01 11:49:57;;;;;;;1.50;1.40;;;;;;;;;;5036555;28;20511;-49
2022/09/01 11:52:28;;;;;;;9.43;2.28;;;;;;;;;;5050081;28;20017;-48
2022/09/01 11:54:55;;;;;;;2.88;1.85;;;;;;;;;;5048469;28;20430;-49
2022/09/01 11:57:38;;;;;;;2.50;1.65;;;;;;;;;;5045765;28;20712;-52
2022/09/01 12:00:10;;;;;;;2.28;1.58;;;;;;;;;;5049958;28;20064;-48
2022/09/01 12:02:46;;;;;;;1.92;1.45;;;;;;;;;;5058386;28;20077;-49
2022/09/01 12:05:41;;;;;;;2.15;1.60;;;;;;;;;;5052470;28;20040;-47
2022/09/01 12:08:13;;;;;;;2.67;1.55;;;;;;;;;;5047669;28;20033;-47
2022/09/01 12:10:40;;;;;;;1.73;1.60;;;;;;;;;;5059600;28;20047;-46
2022/09/01 12:13:09;;;;;;;7.20;1.60;;;;;;;;;;5054029;28;20039;-50
2022/09/01 12:15:41;;;;;;;2.33;1.50;;;;;;;;;;5056409;28;20028;-50
2022/09/01 12:18:17;;;;;;;2.10;1.60;;;;;;;;;;5054033;28;20025;-49
2022/09/01 12:20:44;;;;;;;2.53;1.35;;;;;;;;;;5059396;28;20028;-49
2022/09/01 12:23:31;;;;;;;3.28;1.40;;;;;;;;;;5060029;28;20176;-47
2022/09/01 12:26:04;;;;;;;2.00;1.50;;;;;;;;;;5050983;28;20033;-48
2022/09/01 12:28:32;;;;;;;2.15;1.60;;;;;;;;;;5049672;28;20037;-52
2022/09/01 12:31:00;;;;;;;3.42;1.45;;;;;;;;;;5058101;28;20025;-51
2022/09/01 12:33:27;;;;;;;1.48;1.38;;;;;;;;;;5054925;28;20040;-50
2022/09/01 12:36:29;;;;;;;6.60;1.58;;;;;;;;;;5057047;28;20227;-49
2022/09/01 12:39:16;;;;;;;1.90;1.58;;;;;;;;;;5060153;28;20038;-53
2022/09/01 12:41:43;;;;;;;2.17;1.60;;;;;;;;;;5044671;28;20388;-51
2022/09/01 12:44:28;;;;;;;2.45;1.48;;;;;;;;;;5059173;28;20021;-50
2022/09/01 12:46:55;;;;;;;4.07;1.60;;;;;;;;;;5057648;28;20119;-48
2022/09/01 12:49:24;;;;;;;4.63;1.33;;;;;;;;;;5057478;28;20640;-48
2022/09/01 12:52:24;;;;;;;1.73;1.63;;;;;;;;;;5059941;28;20078;-48
2022/09/01 12:55:13;;;;;;;1.30;1.30;;;;;;;;;;5051563;28;20116;-51
2022/09/01 12:57:47;;;;;;;2.40;1.17;;;;;;;;;;5046629;28;20485;-50
2022/09/01 13:00:30;;;;;;;5.32;1.33;;;;;;;;;;5058352;28;20078;-53
2022/09/01 13:02:56;;;;;;;1.85;1.25;;;;;;;;;;5055470;28;20091;-50
2022/09/01 13:05:27;;;;;;;1.50;1.40;;;;;;;;;;5055948;28;20053;-53
2022/09/01 13:08:12;;;;;;;;;;;;;;;;;;5050513;28;20566;-49
2022/09/01 13:10:44;;;;;;;4.50;1.50;;;;;;;;;;5043360;28;19916;-51
2022/09/01 13:13:11;;;;;;;1.75;1.20;;;;;;;;;;5055332;28;20017;-53
2022/09/01 13:15:41;;;;;;;1.30;1.20;;;;;;;;;;5060144;28;20111;-51
2022/09/01 13:18:07;;;;;;;1.20;1.10;;;;;;;;;;5056814;28;20106;-50
2022/09/01 13:20:34;;;;;;;3.63;1.30;;;;;;;;;;5064849;28;20473;-50
2022/09/01 13:22:59;;;;;;;2.80;1.30;;;;;;;;;;5059271;28;20085;-51
2022/09/01 13:25:25;;;;;;;1.90;1.40;;;;;;;;;;5035672;28;20124;-53
2022/09/01 13:27:51;;;;;;;1.58;1.48;;;;;;;;;;5061001;28;20045;-49
2022/09/01 13:30:20;;;;;;;1.10;1.10;;;;;;;;;;5062199;28;20029;-47
2022/09/01 13:32:46;;;;;;;3.38;1.20;;;;;;;;;;5059266;28;20480;-51
2022/09/01 13:35:15;;;;;;;1.17;1.17;;;;;;;;;;5058788;28;20037;-49
2022/09/01 13:37:41;;;;;;;4.38;1.20;;;;;;;;;;5054758;28;20039;-50
2022/09/01 13:40:14;;;;;;;1.20;1.10;;;;;;;;;;5055852;28;20111;-51
2022/09/01 13:42:41;;;;;;;3.53;1.20;;;;;;;;;;5053350;28;20029;-52
2022/09/01 13:45:07;;;;;;;2.35;1.60;;;;;;;;;;5058073;28;20105;-53
2022/09/01 13:47:32;;;;;;;4.43;1.30;;;;;;;;;;5056070;28;20552;-48
2022/09/01 13:49:59;;;;;;;1.40;1.13;;;;;;;;;;5058929;28;20039;-49
2022/09/01 13:52:25;;;;;;;3.00;1.35;;;;;;;;;;5058066;28;20032;-50
2022/09/01 13:54:50;;;;;;;3.70;1.10;;;;;;;;;;5053323;28;20069;-51
2022/09/01 13:57:16;;;;;;;3.38;1.20;;;;;;;;;;5053992;28;20102;-47
2022/09/01 13:59:43;;;;;;;6.20;1.30;;;;;;;;;;5058033;28;20489;-48
2022/09/01 14:02:09;;;;;;;1.67;1.58;;;;;;;;;;5059432;28;20539;-50
2022/09/01 14:04:35;;;;;;;4.20;1.40;;;;;;;;;;5060706;28;20117;-47
2022/09/01 14:07:06;;;;;;;2.13;1.38;;;;;;;;;;5046984;28;20432;-47
2022/09/01 14:09:36;;;;;;;2.15;1.30;;;;;;;;;;5055007;28;20032;-50
2022/09/01 14:12:04;;;;;;;3.45;1.20;;;;;;;;;;5050398;28;20041;-53
2022/09/01 14:14:32;;;;;;;1.77;1.27;;;;;;;;;;5030775;28;20029;-56
2022/09/01 14:16:57;;;;;;;1.15;1.05;;;;;;;;;;5051494;28;20124;-53
2022/09/01 14:19:23;;;;;;;1.63;1.08;;;;;;;;;;5050524;28;20556;-50
2022/09/01 14:21:49;;;;;;;1.38;1.20;;;;;;;;;;5055969;28;20028;-49
2022/09/01 14:24:18;;;;;;;1.30;1.20;;;;;;;;;;5053604;28;20029;-53
2022/09/01 14:26:45;;;;;;;1.52;1.27;;;;;;;;;;5039480;28;20027;-53
2022/09/01 14:29:10;;;;;;;1.95;1.27;;;;;;;;;;5039423;28;20082;-51
2022/09/01 14:31:36;;;;;;;1.77;1.30;;;;;;;;;;5051617;28;20036;-56
2022/09/01 14:34:02;;;;;;;3.08;1.10;;;;;;;;;;5056768;28;20078;-49
2022/09/01 14:36:28;;;;;;;2.33;1.13;;;;;;;;;;5051762;28;20426;-54
2022/09/01 14:38:54;;;;;;;1.48;1.15;;;;;;;;;;5036791;28;20082;-50
2022/09/01 14:41:23;;;;;;;1.85;1.02;;;;;;;;;;5056925;28;20549;-51
2022/09/01 14:43:51;;;;;;;2.85;1.35;;;;;;;;;;5036482;28;20120;-50
2022/09/01 14:46:18;;;;;;;4.18;1.50;;;;;;;;;;5049270;28;20120;-50
2022/09/01 14:48:45;;;;;;;3.63;1.10;;;;;;;;;;5052960;28;20032;-56
2022/09/01 14:51:21;;;;;;;2.60;1.70;;;;;;;;;;5038100;28;20645;-51
2022/09/01 14:53:47;;;;;;;3.38;1.30;;;;;;;;;;5053557;28;20362;-52
2022/09/01 14:56:17;;;;;;;3.47;1.13;;;;;;;;;;5059168;28;20496;-50
2022/09/01 14:58:45;;;;;;;2.67;1.48;;;;;;;;;;5059021;28;20024;-49
2022/09/01 15:01:12;;;;;;;2.72;1.27;;;;;;;;;;5055459;28;20032;-57
2022/09/01 15:03:38;;;;;;;1.52;1.10;;;;;;;;;;5053652;28;20439;-49
2022/09/01 15:06:04;;;;;;;1.15;1.05;;;;;;;;;;5057794;28;20024;-52
2022/09/01 15:08:29;;;;;;;1.88;1.35;;;;;;;;;;5051709;28;20029;-51
2022/09/01 15:10:55;;;;;;;1.40;1.30;;;;;;;;;;5052909;28;20504;-51